sensor_id;sensor_type;location;lat;lon;timestamp;pressure;altitude;pressure_sealevel;temperature;humidity
61109;BME280;46995;55.740;37.402;2023-02-15T00:01:59;99840.06;;;-1.43;75.16
61109;BME280;46995;55.740;37.402;2023-02-15T00:04:25;99844.44;;;-1.45;74.63
61109;BME280;46995;55.740;37.402;2023-02-15T00:07:15;99839.31;;;-1.47;75.12
61109;BME280;46995;55.740;37.402;2023-02-15T00:09:42;99812.25;;;-1.64;75.09
61109;BME280;46995;55.740;37.402;2023-02-15T00:12:09;99836.63;;;-1.44;74.30
61109;BME280;46995;55.740;37.402;2023-02-15T00:14:34;99840.09;;;-1.45;74.58
61109;BME280;46995;55.740;37.402;2023-02-15T00:17:00;99845.38;;;-1.48;74.53
61109;BME280;46995;55.740;37.402;2023-02-15T00:19:26;99846.22;;;-1.47;74.74
61109;BME280;46995;55.740;37.402;2023-02-15T00:21:52;99847.13;;;-1.48;74.78
61109;BME280;46995;55.740;37.402;2023-02-15T00:24:19;99835.75;;;-1.44;74.74
61109;BME280;46995;55.740;37.402;2023-02-15T00:26:46;99847.72;;;-1.40;74.88
61109;BME280;46995;55.740;37.402;2023-02-15T00:29:14;99840.22;;;-1.48;74.28
61109;BME280;46995;55.740;37.402;2023-02-15T00:31:40;99821.78;;;-1.65;73.94
61109;BME280;46995;55.740;37.402;2023-02-15T00:34:10;99834.56;;;-1.60;74.46
61109;BME280;46995;55.740;37.402;2023-02-15T00:36:38;99842.00;;;-1.50;74.58
61109;BME280;46995;55.740;37.402;2023-02-15T00:39:04;99839.84;;;-1.37;74.68
61109;BME280;46995;55.740;37.402;2023-02-15T00:41:31;99851.97;;;-1.38;73.96
61109;BME280;46995;55.740;37.402;2023-02-15T00:43:57;99844.22;;;-1.39;74.27
61109;BME280;46995;55.740;37.402;2023-02-15T00:46:22;99839.31;;;-1.47;74.19
61109;BME280;46995;55.740;37.402;2023-02-15T00:48:48;99851.50;;;-1.50;74.40
61109;BME280;46995;55.740;37.402;2023-02-15T00:51:15;99844.72;;;-1.54;74.22
61109;BME280;46995;55.740;37.402;2023-02-15T00:53:41;99855.81;;;-1.51;74.97
61109;BME280;46995;55.740;37.402;2023-02-15T00:56:07;99853.38;;;-1.55;74.72
61109;BME280;46995;55.740;37.402;2023-02-15T00:58:33;99843.13;;;-1.58;74.87
61109;BME280;46995;55.740;37.402;2023-02-15T01:01:10;99839.03;;;-1.65;74.90
61109;BME280;46995;55.740;37.402;2023-02-15T01:03:37;99850.09;;;-1.60;74.49
61109;BME280;46995;55.740;37.402;2023-02-15T01:06:04;99842.00;;;-1.78;74.88
61109;BME280;46995;55.740;37.402;2023-02-15T01:08:30;99840.97;;;-1.72;75.06
61109;BME280;46995;55.740;37.402;2023-02-15T01:10:56;99840.44;;;-1.55;74.98
61109;BME280;46995;55.740;37.402;2023-02-15T01:13:23;99861.34;;;-1.61;74.39
61109;BME280;46995;55.740;37.402;2023-02-15T01:15:53;99859.75;;;-1.65;74.96
61109;BME280;46995;55.740;37.402;2023-02-15T01:18:20;99848.81;;;-1.74;74.57
61109;BME280;46995;55.740;37.402;2023-02-15T01:20:48;99862.91;;;-1.56;74.22
61109;BME280;46995;55.740;37.402;2023-02-15T01:23:14;99868.19;;;-1.59;73.62
61109;BME280;46995;55.740;37.402;2023-02-15T01:25:39;99843.69;;;-1.77;73.82
61109;BME280;46995;55.740;37.402;2023-02-15T01:28:05;99850.47;;;-1.73;73.59
61109;BME280;46995;55.740;37.402;2023-02-15T01:30:32;99861.56;;;-1.67;73.76
61109;BME280;46995;55.740;37.402;2023-02-15T01:32:58;99847.88;;;-1.73;74.48
61109;BME280;46995;55.740;37.402;2023-02-15T01:35:24;99866.13;;;-1.76;75.64
61109;BME280;46995;55.740;37.402;2023-02-15T01:37:50;99846.69;;;-1.89;75.62
61109;BME280;46995;55.740;37.402;2023-02-15T01:40:17;99861.41;;;-1.91;75.75
61109;BME280;46995;55.740;37.402;2023-02-15T01:42:44;99865.72;;;-1.91;75.96
61109;BME280;46995;55.740;37.402;2023-02-15T01:53:05;99883.63;;;-1.84;74.50
61109;BME280;46995;55.740;37.402;2023-02-15T01:55:40;99880.91;;;-1.79;74.30
61109;BME280;46995;55.740;37.402;2023-02-15T01:58:08;99884.09;;;-1.71;74.17
61109;BME280;46995;55.740;37.402;2023-02-15T02:00:35;99883.16;;;-1.68;73.60
61109;BME280;46995;55.740;37.402;2023-02-15T02:03:03;99873.84;;;-1.74;73.24
61109;BME280;46995;55.740;37.402;2023-02-15T02:05:30;99867.09;;;-1.80;73.02
61109;BME280;46995;55.740;37.402;2023-02-15T02:07:57;99888.16;;;-1.62;73.52
61109;BME280;46995;55.740;37.402;2023-02-15T02:10:24;99884.56;;;-1.58;73.59
61109;BME280;46995;55.740;37.402;2023-02-15T02:12:52;99881.47;;;-1.69;71.71
61109;BME280;46995;55.740;37.402;2023-02-15T02:15:24;99890.03;;;-1.67;72.11
61109;BME280;46995;55.740;37.402;2023-02-15T02:17:56;99884.00;;;-1.68;71.87
61109;BME280;46995;55.740;37.402;2023-02-15T02:34:30;99891.63;;;-1.63;70.87
61109;BME280;46995;55.740;37.402;2023-02-15T02:37:07;99890.97;;;-1.70;70.45
61109;BME280;46995;55.740;37.402;2023-02-15T02:42:29;99892.84;;;-1.75;70.69
61109;BME280;46995;55.740;37.402;2023-02-15T02:47:43;99888.88;;;-1.87;71.05
61109;BME280;46995;55.740;37.402;2023-02-15T02:50:17;99904.22;;;-1.81;69.77
61109;BME280;46995;55.740;37.402;2023-02-15T02:52:46;99908.00;;;-1.91;70.47
61109;BME280;46995;55.740;37.402;2023-02-15T02:55:28;99891.75;;;-1.96;70.73
61109;BME280;46995;55.740;37.402;2023-02-15T03:00:31;99903.69;;;-1.92;70.45
61109;BME280;46995;55.740;37.402;2023-02-15T03:03:24;99920.69;;;-1.83;70.64
61109;BME280;46995;55.740;37.402;2023-02-15T03:05:54;99906.13;;;-1.86;70.46
61109;BME280;46995;55.740;37.402;2023-02-15T03:08:25;99918.16;;;-1.85;70.72
61109;BME280;46995;55.740;37.402;2023-02-15T03:10:55;99906.06;;;-1.84;70.32
61109;BME280;46995;55.740;37.402;2023-02-15T03:13:22;99917.38;;;-1.88;70.23
61109;BME280;46995;55.740;37.402;2023-02-15T03:15:50;99914.22;;;-1.98;70.15
61109;BME280;46995;55.740;37.402;2023-02-15T03:18:41;99928.03;;;-1.99;70.07
61109;BME280;46995;55.740;37.402;2023-02-15T03:21:11;99926.44;;;-2.03;70.67
61109;BME280;46995;55.740;37.402;2023-02-15T03:23:52;99918.69;;;-2.03;70.91
61109;BME280;46995;55.740;37.402;2023-02-15T03:26:21;99916.19;;;-2.06;71.25
61109;BME280;46995;55.740;37.402;2023-02-15T03:28:50;99923.97;;;-2.06;71.79
61109;BME280;46995;55.740;37.402;2023-02-15T03:31:21;99911.41;;;-2.20;71.08
61109;BME280;46995;55.740;37.402;2023-02-15T03:33:56;99941.94;;;-2.01;71.45
61109;BME280;46995;55.740;37.402;2023-02-15T03:44:29;99932.47;;;-2.32;72.58
61109;BME280;46995;55.740;37.402;2023-02-15T03:47:03;99919.81;;;-2.42;73.18
61109;BME280;46995;55.740;37.402;2023-02-15T03:50:08;99940.16;;;-2.30;74.32
61109;BME280;46995;55.740;37.402;2023-02-15T03:52:55;99940.16;;;-2.30;73.09
61109;BME280;46995;55.740;37.402;2023-02-15T03:55:22;99930.06;;;-2.39;72.79
61109;BME280;46995;55.740;37.402;2023-02-15T03:57:49;99927.56;;;-2.42;72.31
61109;BME280;46995;55.740;37.402;2023-02-15T04:00:36;99930.94;;;-2.40;71.72
61109;BME280;46995;55.740;37.402;2023-02-15T04:04:13;99930.88;;;-2.37;71.33
61109;BME280;46995;55.740;37.402;2023-02-15T04:06:19;99941.94;;;-2.32;71.00
61109;BME280;46995;55.740;37.402;2023-02-15T04:08:45;99938.53;;;-2.34;70.74
61109;BME280;46995;55.740;37.402;2023-02-15T04:11:31;99935.94;;;-2.33;70.42
61109;BME280;46995;55.740;37.402;2023-02-15T04:13:57;99940.22;;;-2.32;70.76
61109;BME280;46995;55.740;37.402;2023-02-15T04:16:23;99917.09;;;-2.38;69.75
61109;BME280;46995;55.740;37.402;2023-02-15T04:18:49;99921.59;;;-2.44;69.68
61109;BME280;46995;55.740;37.402;2023-02-15T04:21:33;99942.13;;;-2.38;68.66
61109;BME280;46995;55.740;37.402;2023-02-15T04:24:18;99927.72;;;-2.47;68.82
61109;BME280;46995;55.740;37.402;2023-02-15T04:27:04;99949.16;;;-2.43;68.62
61109;BME280;46995;55.740;37.402;2023-02-15T04:29:31;99931.31;;;-2.52;68.45
61109;BME280;46995;55.740;37.402;2023-02-15T04:31:59;99940.66;;;-2.48;68.14
61109;BME280;46995;55.740;37.402;2023-02-15T04:34:25;99937.44;;;-2.57;68.36
61109;BME280;46995;55.740;37.402;2023-02-15T04:36:51;99957.78;;;-2.44;68.58
61109;BME280;46995;55.740;37.402;2023-02-15T04:39:18;99962.97;;;-2.44;68.32
61109;BME280;46995;55.740;37.402;2023-02-15T04:41:45;99930.69;;;-2.62;67.94
61109;BME280;46995;55.740;37.402;2023-02-15T04:44:11;99957.94;;;-2.50;67.87
61109;BME280;46995;55.740;37.402;2023-02-15T04:46:37;99950.47;;;-2.61;68.01
61109;BME280;46995;55.740;37.402;2023-02-15T04:49:03;99962.31;;;-2.52;68.11
61109;BME280;46995;55.740;37.402;2023-02-15T04:51:29;99930.72;;;-2.64;68.27
61109;BME280;46995;55.740;37.402;2023-02-15T04:53:55;99930.56;;;-2.58;67.89
61109;BME280;46995;55.740;37.402;2023-02-15T04:56:22;99949.41;;;-2.52;67.55
61109;BME280;46995;55.740;37.402;2023-02-15T04:58:47;99937.50;;;-2.60;67.72
61109;BME280;46995;55.740;37.402;2023-02-15T05:01:14;99956.19;;;-2.48;68.15
61109;BME280;46995;55.740;37.402;2023-02-15T05:03:40;99940.19;;;-2.63;67.25
61109;BME280;46995;55.740;37.402;2023-02-15T05:06:05;99954.97;;;-2.68;67.76
61109;BME280;46995;55.740;37.402;2023-02-15T05:08:31;99956.59;;;-2.64;67.74
61109;BME280;46995;55.740;37.402;2023-02-15T05:10:57;99932.75;;;-2.75;68.37
61109;BME280;46995;55.740;37.402;2023-02-15T05:13:24;99946.31;;;-2.67;67.65
61109;BME280;46995;55.740;37.402;2023-02-15T05:15:51;99962.47;;;-2.59;67.92
61109;BME280;46995;55.740;37.402;2023-02-15T05:18:18;99955.03;;;-2.71;68.02
61109;BME280;46995;55.740;37.402;2023-02-15T05:20:44;99966.97;;;-2.67;67.68
61109;BME280;46995;55.740;37.402;2023-02-15T05:23:11;99965.97;;;-2.61;67.77
61109;BME280;46995;55.740;37.402;2023-02-15T05:25:37;99970.38;;;-2.65;68.02
61109;BME280;46995;55.740;37.402;2023-02-15T05:28:23;99977.88;;;-2.54;68.00
61109;BME280;46995;55.740;37.402;2023-02-15T05:30:51;99981.34;;;-2.55;67.43
61109;BME280;46995;55.740;37.402;2023-02-15T05:33:24;99975.25;;;-2.52;68.18
61109;BME280;46995;55.740;37.402;2023-02-15T05:35:50;99976.09;;;-2.52;67.78
61109;BME280;46995;55.740;37.402;2023-02-15T05:38:16;99970.13;;;-2.56;68.14
61109;BME280;46995;55.740;37.402;2023-02-15T05:40:42;99958.28;;;-2.63;67.95
61109;BME280;46995;55.740;37.402;2023-02-15T05:43:08;99975.16;;;-2.49;67.18
61109;BME280;46995;55.740;37.402;2023-02-15T05:45:33;99973.41;;;-2.47;67.38
61109;BME280;46995;55.740;37.402;2023-02-15T05:47:59;99987.09;;;-2.45;67.23
61109;BME280;46995;55.740;37.402;2023-02-15T05:50:26;99988.19;;;-2.52;68.01
61109;BME280;46995;55.740;37.402;2023-02-15T05:52:52;99980.44;;;-2.54;67.55
61109;BME280;46995;55.740;37.402;2023-02-15T05:55:17;99983.59;;;-2.41;67.87
61109;BME280;46995;55.740;37.402;2023-02-15T05:57:43;99999.72;;;-2.33;67.89
61109;BME280;46995;55.740;37.402;2023-02-15T06:00:10;99974.19;;;-2.45;67.11
61109;BME280;46995;55.740;37.402;2023-02-15T06:02:39;99992.13;;;-2.39;67.24
61109;BME280;46995;55.740;37.402;2023-02-15T06:05:06;99993.84;;;-2.38;67.58
61109;BME280;46995;55.740;37.402;2023-02-15T06:07:32;99981.78;;;-2.39;67.37
61109;BME280;46995;55.740;37.402;2023-02-15T06:09:58;99996.38;;;-2.37;66.46
61109;BME280;46995;55.740;37.402;2023-02-15T06:12:24;99971.78;;;-2.51;67.33
61109;BME280;46995;55.740;37.402;2023-02-15T06:14:49;99980.31;;;-2.49;67.58
61109;BME280;46995;55.740;37.402;2023-02-15T06:17:15;99999.81;;;-2.36;67.48
61109;BME280;46995;55.740;37.402;2023-02-15T06:19:42;99979.34;;;-2.45;67.43
61109;BME280;46995;55.740;37.402;2023-02-15T06:22:08;99974.91;;;-2.40;66.99
61109;BME280;46995;55.740;37.402;2023-02-15T06:24:34;99982.03;;;-2.48;67.16
61109;BME280;46995;55.740;37.402;2023-02-15T06:27:00;99995.09;;;-2.53;67.60
61109;BME280;46995;55.740;37.402;2023-02-15T06:29:25;100005.28;;;-2.47;66.65
61109;BME280;46995;55.740;37.402;2023-02-15T06:31:51;99996.94;;;-2.58;67.18
61109;BME280;46995;55.740;37.402;2023-02-15T06:34:17;100009.75;;;-2.53;67.06
61109;BME280;46995;55.740;37.402;2023-02-15T06:36:43;99999.78;;;-2.69;66.89
61109;BME280;46995;55.740;37.402;2023-02-15T06:39:09;100016.81;;;-2.60;67.83
61109;BME280;46995;55.740;37.402;2023-02-15T06:41:34;100019.22;;;-2.54;67.55
61109;BME280;46995;55.740;37.402;2023-02-15T06:44:00;99997.72;;;-2.56;67.15
61109;BME280;46995;55.740;37.402;2023-02-15T06:46:26;100001.00;;;-2.49;67.63
61109;BME280;46995;55.740;37.402;2023-02-15T06:48:52;99997.31;;;-2.39;66.72
61109;BME280;46995;55.740;37.402;2023-02-15T06:51:17;100017.94;;;-2.36;66.63
61109;BME280;46995;55.740;37.402;2023-02-15T06:53:43;100017.84;;;-2.33;66.61
61109;BME280;46995;55.740;37.402;2023-02-15T06:56:10;100023.66;;;-2.25;66.51
61109;BME280;46995;55.740;37.402;2023-02-15T06:58:37;100028.66;;;-2.19;66.48
61109;BME280;46995;55.740;37.402;2023-02-15T07:01:04;100009.69;;;-2.20;66.37
61109;BME280;46995;55.740;37.402;2023-02-15T07:03:30;100032.69;;;-2.09;66.09
61109;BME280;46995;55.740;37.402;2023-02-15T07:05:57;100022.44;;;-2.12;65.74
61109;BME280;46995;55.740;37.402;2023-02-15T07:08:24;100026.88;;;-2.17;66.74
61109;BME280;46995;55.740;37.402;2023-02-15T07:10:52;100031.19;;;-2.16;66.09
61109;BME280;46995;55.740;37.402;2023-02-15T07:13:20;100029.28;;;-2.09;66.28
61109;BME280;46995;55.740;37.402;2023-02-15T07:15:47;100023.03;;;-2.02;66.22
61109;BME280;46995;55.740;37.402;2023-02-15T07:18:13;100015.50;;;-2.10;66.55
61109;BME280;46995;55.740;37.402;2023-02-15T07:20:40;100024.06;;;-2.08;65.89
61109;BME280;46995;55.740;37.402;2023-02-15T07:23:07;100025.75;;;-2.07;65.94
61109;BME280;46995;55.740;37.402;2023-02-15T07:25:34;100024.22;;;-2.14;66.17
61109;BME280;46995;55.740;37.402;2023-02-15T07:28:02;100027.72;;;-2.15;66.04
61109;BME280;46995;55.740;37.402;2023-02-15T07:30:28;100027.38;;;-2.03;67.60
61109;BME280;46995;55.740;37.402;2023-02-15T07:32:57;100005.88;;;-2.05;65.77
61109;BME280;46995;55.740;37.402;2023-02-15T07:35:54;100021.53;;;-1.79;65.92
61109;BME280;46995;55.740;37.402;2023-02-15T07:38:21;100035.53;;;-1.86;66.25
61109;BME280;46995;55.740;37.402;2023-02-15T07:40:47;100030.66;;;-1.98;67.25
61109;BME280;46995;55.740;37.402;2023-02-15T07:43:13;100006.09;;;-2.14;68.26
61109;BME280;46995;55.740;37.402;2023-02-15T07:45:39;100026.47;;;-2.02;69.03
61109;BME280;46995;55.740;37.402;2023-02-15T07:48:06;100027.31;;;-2.01;69.35
61109;BME280;46995;55.740;37.402;2023-02-15T07:50:34;100031.53;;;-1.97;69.64
61109;BME280;46995;55.740;37.402;2023-02-15T07:53:02;100033.31;;;-1.99;69.06
61109;BME280;46995;55.740;37.402;2023-02-15T07:55:28;100040.22;;;-2.00;68.66
61109;BME280;46995;55.740;37.402;2023-02-15T07:57:54;100041.97;;;-2.00;69.18
61109;BME280;46995;55.740;37.402;2023-02-15T08:00:21;100040.97;;;-1.95;68.45
61109;BME280;46995;55.740;37.402;2023-02-15T08:02:54;100014.38;;;-2.01;67.72
61109;BME280;46995;55.740;37.402;2023-02-15T08:05:43;100042.47;;;-1.88;67.86
61109;BME280;46995;55.740;37.402;2023-02-15T08:08:10;100047.66;;;-1.88;67.78
61109;BME280;46995;55.740;37.402;2023-02-15T08:13:53;100042.56;;;-1.91;66.90
61109;BME280;46995;55.740;37.402;2023-02-15T08:16:51;100052.91;;;-1.91;67.07
61109;BME280;46995;55.740;37.402;2023-02-15T08:19:25;100035.69;;;-1.92;66.71
61109;BME280;46995;55.740;37.402;2023-02-15T08:24:26;100050.19;;;-1.86;66.06
61109;BME280;46995;55.740;37.402;2023-02-15T08:26:54;100041.88;;;-1.97;66.17
61109;BME280;46995;55.740;37.402;2023-02-15T08:29:27;100056.38;;;-1.92;66.12
61109;BME280;46995;55.740;37.402;2023-02-15T08:31:55;100053.06;;;-1.97;66.73
61109;BME280;46995;55.740;37.402;2023-02-15T08:34:24;100067.09;;;-1.73;66.70
61109;BME280;46995;55.740;37.402;2023-02-15T08:36:50;100053.03;;;-1.64;65.71
61109;BME280;46995;55.740;37.402;2023-02-15T08:39:16;100054.50;;;-1.56;65.60
61109;BME280;46995;55.740;37.402;2023-02-15T08:41:45;100077.44;;;-1.42;65.23
61109;BME280;46995;55.740;37.402;2023-02-15T08:44:12;100058.19;;;-1.63;64.63
61109;BME280;46995;55.740;37.402;2023-02-15T08:46:41;100062.84;;;-1.76;65.43
61109;BME280;46995;55.740;37.402;2023-02-15T08:49:08;100058.91;;;-1.89;65.49
61109;BME280;46995;55.740;37.402;2023-02-15T08:51:35;100073.31;;;-1.79;65.07
61109;BME280;46995;55.740;37.402;2023-02-15T08:54:04;100077.78;;;-1.85;65.79
61109;BME280;46995;55.740;37.402;2023-02-15T08:56:33;100077.56;;;-1.78;65.84
61109;BME280;46995;55.740;37.402;2023-02-15T08:59:00;100079.91;;;-1.68;65.29
61109;BME280;46995;55.740;37.402;2023-02-15T09:01:29;100088.47;;;-1.66;65.01
61109;BME280;46995;55.740;37.402;2023-02-15T09:03:57;100081.63;;;-1.67;65.14
61109;BME280;46995;55.740;37.402;2023-02-15T09:06:25;100060.34;;;-1.79;65.09
61109;BME280;46995;55.740;37.402;2023-02-15T09:08:51;100085.94;;;-1.68;65.90
61109;BME280;46995;55.740;37.402;2023-02-15T09:11:22;100083.41;;;-1.69;65.94
61109;BME280;46995;55.740;37.402;2023-02-15T09:13:54;100071.44;;;-1.74;67.55
61109;BME280;46995;55.740;37.402;2023-02-15T09:16:21;100082.50;;;-1.68;66.86
61109;BME280;46995;55.740;37.402;2023-02-15T09:18:50;100085.88;;;-1.66;67.36
61109;BME280;46995;55.740;37.402;2023-02-15T09:21:20;100075.38;;;-1.60;65.80
61109;BME280;46995;55.740;37.402;2023-02-15T09:23:48;100067.59;;;-1.60;65.50
61109;BME280;46995;55.740;37.402;2023-02-15T09:26:17;100084.69;;;-1.55;65.22
61109;BME280;46995;55.740;37.402;2023-02-15T09:28:44;100085.22;;;-1.42;65.03
61109;BME280;46995;55.740;37.402;2023-02-15T09:31:19;100075.75;;;-1.43;65.10
61109;BME280;46995;55.740;37.402;2023-02-15T09:33:46;100047.75;;;-1.61;64.35
61109;BME280;46995;55.740;37.402;2023-02-15T09:36:19;100063.94;;;-1.53;64.58
61109;BME280;46995;55.740;37.402;2023-02-15T09:38:48;100057.34;;;-1.63;64.45
61109;BME280;46995;55.740;37.402;2023-02-15T10:09:03;100101.06;;;-1.53;65.18
61109;BME280;46995;55.740;37.402;2023-02-15T10:11:46;100106.72;;;-1.40;65.38
61109;BME280;46995;55.740;37.402;2023-02-15T10:14:43;100116.91;;;-1.34;64.23
61109;BME280;46995;55.740;37.402;2023-02-15T10:17:24;100112.84;;;-1.43;64.83
61109;BME280;46995;55.740;37.402;2023-02-15T10:25:33;100094.22;;;-1.55;65.37
61109;BME280;46995;55.740;37.402;2023-02-15T10:28:11;100114.72;;;-1.48;66.29
61109;BME280;46995;55.740;37.402;2023-02-15T10:30:52;100098.66;;;-1.60;66.08
61109;BME280;46995;55.740;37.402;2023-02-15T10:33:41;100107.31;;;-1.61;66.53
61109;BME280;46995;55.740;37.402;2023-02-15T10:39:22;100104.56;;;-1.55;66.84
61109;BME280;46995;55.740;37.402;2023-02-15T10:47:56;100124.81;;;-1.39;65.74
61109;BME280;46995;55.740;37.402;2023-02-15T11:01:51;100153.28;;;-1.37;66.43
61109;BME280;46995;55.740;37.402;2023-02-15T11:07:25;100159.81;;;-1.55;67.19
61109;BME280;46995;55.740;37.402;2023-02-15T11:10:13;100171.28;;;-1.65;67.80
61109;BME280;46995;55.740;37.402;2023-02-15T11:12:48;100157.63;;;-1.70;68.15
61109;BME280;46995;55.740;37.402;2023-02-15T11:17:57;100145.53;;;-1.69;68.04
61109;BME280;46995;55.740;37.402;2023-02-15T11:20:25;100168.44;;;-1.56;68.51
61109;BME280;46995;55.740;37.402;2023-02-15T11:22:54;100157.59;;;-1.68;68.64
61109;BME280;46995;55.740;37.402;2023-02-15T11:25:25;100170.38;;;-1.62;69.19
61109;BME280;46995;55.740;37.402;2023-02-15T11:27:51;100165.41;;;-1.72;69.46
61109;BME280;46995;55.740;37.402;2023-02-15T11:30:33;100169.56;;;-1.64;69.30
61109;BME280;46995;55.740;37.402;2023-02-15T11:33:04;100181.28;;;-1.51;68.59
61109;BME280;46995;55.740;37.402;2023-02-15T11:35:36;100179.34;;;-1.43;68.66
61109;BME280;46995;55.740;37.402;2023-02-15T11:38:19;100183.78;;;-1.47;68.41
61109;BME280;46995;55.740;37.402;2023-02-15T11:40:49;100182.59;;;-1.67;70.51
61109;BME280;46995;55.740;37.402;2023-02-15T11:45:44;100183.09;;;-1.87;71.56
61109;BME280;46995;55.740;37.402;2023-02-15T11:48:13;100189.78;;;-1.79;71.51
61109;BME280;46995;55.740;37.402;2023-02-15T11:50:41;100185.56;;;-1.83;71.05
61109;BME280;46995;55.740;37.402;2023-02-15T11:53:17;100195.72;;;-1.75;70.84
61109;BME280;46995;55.740;37.402;2023-02-15T11:55:47;100192.19;;;-1.73;70.52
61109;BME280;46995;55.740;37.402;2023-02-15T11:58:33;100192.19;;;-1.73;69.80
61109;BME280;46995;55.740;37.402;2023-02-15T12:03:56;100195.34;;;-1.61;69.53
61109;BME280;46995;55.740;37.402;2023-02-15T12:06:35;100182.63;;;-1.69;69.54
61109;BME280;46995;55.740;37.402;2023-02-15T12:14:51;100203.38;;;-1.71;68.15
61109;BME280;46995;55.740;37.402;2023-02-15T12:17:18;100201.72;;;-1.73;68.99
61109;BME280;46995;55.740;37.402;2023-02-15T12:19:46;100212.91;;;-1.73;68.29
61109;BME280;46995;55.740;37.402;2023-02-15T12:22:27;100192.53;;;-1.85;67.86
61109;BME280;46995;55.740;37.402;2023-02-15T12:24:58;100192.59;;;-1.88;68.21
61109;BME280;46995;55.740;37.402;2023-02-15T12:27:33;100165.63;;;-2.13;67.94
61109;BME280;46995;55.740;37.402;2023-02-15T12:30:07;100231.38;;;-1.86;67.83
61109;BME280;46995;55.740;37.402;2023-02-15T12:32:54;100212.28;;;-1.82;67.61
61109;BME280;46995;55.740;37.402;2023-02-15T12:35:29;100219.78;;;-1.72;67.60
61109;BME280;46995;55.740;37.402;2023-02-15T12:38:05;100197.59;;;-1.82;66.93
61109;BME280;46995;55.740;37.402;2023-02-15T12:40:58;100224.47;;;-1.52;66.60
61109;BME280;46995;55.740;37.402;2023-02-15T12:43:36;100219.34;;;-1.53;65.93
61109;BME280;46995;55.740;37.402;2023-02-15T12:46:22;100236.50;;;-1.51;65.19
61109;BME280;46995;55.740;37.402;2023-02-15T12:49:05;100216.00;;;-1.58;65.28
61109;BME280;46995;55.740;37.402;2023-02-15T12:51:48;100227.84;;;-1.48;65.10
61109;BME280;46995;55.740;37.402;2023-02-15T12:54:40;100229.00;;;-1.60;65.11
61109;BME280;46995;55.740;37.402;2023-02-15T12:57:20;100241.75;;;-1.52;65.06
61109;BME280;46995;55.740;37.402;2023-02-15T13:00:05;100252.03;;;-1.49;65.08
61109;BME280;46995;55.740;37.402;2023-02-15T13:02:41;100248.59;;;-1.51;64.89
61109;BME280;46995;55.740;37.402;2023-02-15T13:08:02;100261.94;;;-1.66;64.76
61109;BME280;46995;55.740;37.402;2023-02-15T13:10:35;100266.22;;;-1.64;65.19
61109;BME280;46995;55.740;37.402;2023-02-15T13:13:10;100253.53;;;-1.75;68.06
61109;BME280;46995;55.740;37.402;2023-02-15T13:15:38;100274.16;;;-1.72;69.38
61109;BME280;46995;55.740;37.402;2023-02-15T13:18:12;100268.97;;;-1.72;69.26
61109;BME280;46995;55.740;37.402;2023-02-15T13:20:41;100264.78;;;-1.76;68.59
61109;BME280;46995;55.740;37.402;2023-02-15T13:23:24;100272.38;;;-1.69;67.45
61109;BME280;46995;55.740;37.402;2023-02-15T13:25:54;100271.41;;;-1.65;67.28
61109;BME280;46995;55.740;37.402;2023-02-15T13:28:26;100275.72;;;-1.64;67.11
61109;BME280;46995;55.740;37.402;2023-02-15T13:30:55;100241.69;;;-1.85;66.60
61109;BME280;46995;55.740;37.402;2023-02-15T13:33:34;100285.41;;;-1.73;66.99
61109;BME280;46995;55.740;37.402;2023-02-15T13:36:11;100265.06;;;-1.88;66.72
61109;BME280;46995;55.740;37.402;2023-02-15T13:39:00;100287.16;;;-1.73;67.33
61109;BME280;46995;55.740;37.402;2023-02-15T13:41:42;100296.56;;;-1.71;66.75
61109;BME280;46995;55.740;37.402;2023-02-15T13:49:31;100301.03;;;-1.77;66.89
61109;BME280;46995;55.740;37.402;2023-02-15T13:52:13;100297.53;;;-1.75;66.54
61109;BME280;46995;55.740;37.402;2023-02-15T13:54:49;100298.44;;;-1.77;66.31
61109;BME280;46995;55.740;37.402;2023-02-15T14:13:49;100325.56;;;-1.92;67.23
61109;BME280;46995;55.740;37.402;2023-02-15T14:22:51;100307.78;;;-2.07;66.86
61109;BME280;46995;55.740;37.402;2023-02-15T14:26:03;100328.25;;;-1.96;66.21
61109;BME280;46995;55.740;37.402;2023-02-15T14:30:50;100318.03;;;-2.02;65.72
61109;BME280;46995;55.740;37.402;2023-02-15T14:33:38;100328.88;;;-1.87;65.61
61109;BME280;46995;55.740;37.402;2023-02-15T14:36:12;100339.19;;;-1.84;65.21
61109;BME280;46995;55.740;37.402;2023-02-15T14:41:43;100353.13;;;-1.91;65.39
61109;BME280;46995;55.740;37.402;2023-02-15T14:44:16;100344.44;;;-1.88;66.48
61109;BME280;46995;55.740;37.402;2023-02-15T14:47:01;100337.06;;;-2.05;66.77
61109;BME280;46995;55.740;37.402;2023-02-15T14:49:32;100341.66;;;-2.18;66.81
61109;BME280;46995;55.740;37.402;2023-02-15T14:52:06;100336.66;;;-2.25;66.86
61109;BME280;46995;55.740;37.402;2023-02-15T15:04:55;100369.22;;;-2.15;67.63
61109;BME280;46995;55.740;37.402;2023-02-15T15:07:24;100362.34;;;-2.18;68.15
61109;BME280;46995;55.740;37.402;2023-02-15T15:14:54;100346.94;;;-2.22;67.60
61109;BME280;46995;55.740;37.402;2023-02-15T15:20:00;100370.63;;;-2.02;67.20
61109;BME280;46995;55.740;37.402;2023-02-15T15:22:32;100358.66;;;-2.06;66.59
61109;BME280;46995;55.740;37.402;2023-02-15T15:25:46;100365.59;;;-2.08;66.36
61109;BME280;46995;55.740;37.402;2023-02-15T15:27:53;100376.78;;;-2.07;66.50
61109;BME280;46995;55.740;37.402;2023-02-15T15:41:18;100384.28;;;-1.94;65.62
61109;BME280;46995;55.740;37.402;2023-02-15T15:49:23;100391.25;;;-1.99;66.10
61109;BME280;46995;55.740;37.402;2023-02-15T15:51:49;100396.38;;;-1.96;66.01
61109;BME280;46995;55.740;37.402;2023-02-15T15:54:24;100391.22;;;-1.96;65.92
61109;BME280;46995;55.740;37.402;2023-02-15T15:57:02;100397.25;;;-1.95;65.65
61109;BME280;46995;55.740;37.402;2023-02-15T15:59:31;100406.75;;;-1.96;65.74
61109;BME280;46995;55.740;37.402;2023-02-15T16:02:10;100398.97;;;-1.96;65.73
61109;BME280;46995;55.740;37.402;2023-02-15T16:04:37;100353.97;;;-2.30;66.06
61109;BME280;46995;55.740;37.402;2023-02-15T16:09:55;100405.03;;;-1.97;66.34
61109;BME280;46995;55.740;37.402;2023-02-15T16:12:21;100406.94;;;-2.05;65.58
61109;BME280;46995;55.740;37.402;2023-02-15T16:14:48;100413.94;;;-2.10;66.00